Time;durP1;ratioP1;P1;durP2;ratioP2;P2;SDS_P1;SDS_P2;PMS_P1;PMS_P2;Temp;Humidity;BMP_temperature;BMP_pressure;BME280_temperature;BME280_humidity;BME280_pressure;Samples;Min_cycle;Max_cycle;Signal;HPM_P1;HPM_P2
2022/06/11 00:02:33;;;;;;;11.50;3.40;;;;;;;15.20;59.54;100508.66;10512262;28;20048;-63
2022/06/11 00:07:36;;;;;;;6.55;3.00;;;;;;;15.08;59.90;100514.78;10513121;28;20062;-64
2022/06/11 00:12:38;;;;;;;7.95;3.03;;;;;;;15.06;59.71;100514.06;10510899;28;20048;-64
2022/06/11 00:17:39;;;;;;;6.85;3.33;;;;;;;14.82;59.72;100510.47;10512051;28;20159;-64
2022/06/11 00:22:41;;;;;;;7.88;2.97;;;;;;;14.72;60.52;100519.91;10509669;28;20299;-65
2022/06/11 00:27:43;;;;;;;7.97;3.50;;;;;;;14.64;60.31;100520.44;10511660;28;20127;-64
2022/06/11 00:32:46;;;;;;;8.20;3.70;;;;;;;14.42;61.30;100523.63;10511553;28;20135;-64
2022/06/11 00:37:49;;;;;;;10.30;4.22;;;;;;;14.23;60.95;100512.63;10511282;28;20423;-64
2022/06/11 00:42:51;;;;;;;9.23;4.05;;;;;;;14.00;61.77;100515.94;10510340;28;20481;-64
2022/06/11 00:48:01;;;;;;;6.40;2.83;;;;;;;14.13;62.14;100510.69;10508774;28;20419;-64
2022/06/11 00:53:06;;;;;;;;;;;;;;;13.95;62.56;100520.63;10510800;28;20135;-64
2022/06/11 00:58:13;;;;;;;8.77;3.00;;;;;;;14.23;61.57;100506.50;10508427;28;19953;-64
2022/06/11 01:03:20;;;;;;;8.20;3.30;;;;;;;14.21;61.65;100503.13;10510286;28;20491;-64
2022/06/11 01:08:34;;;;;;;7.43;2.70;;;;;;;14.23;61.38;100506.50;10508613;28;20073;-64
2022/06/11 01:13:54;;;;;;;5.97;2.80;;;;;;;14.22;61.37;100503.06;10510236;28;20040;-63
2022/06/11 01:19:10;;;;;;;7.25;3.15;;;;;;;14.18;61.32;100509.47;10491236;28;20334;-63
2022/06/11 01:24:30;;;;;;;8.13;3.50;;;;;;;14.05;61.06;100515.59;10510376;28;20040;-64
2022/06/11 01:29:58;;;;;;;14.40;7.15;;;;;;;13.47;61.55;100515.84;10508904;28;20400;-64
2022/06/11 01:35:14;;;;;;;9.27;4.45;;;;;;;13.20;63.01;100520.13;10507603;28;20048;-65
2022/06/11 01:40:39;;;;;;;8.18;3.80;;;;;;;13.19;63.20;100515.84;10507409;28;20056;-64
2022/06/11 01:45:42;;;;;;;7.65;3.30;;;;;;;13.43;62.51;100519.59;10508383;28;20130;-64
2022/06/11 01:50:54;;;;;;;6.90;3.30;;;;;;;13.53;62.37;100516.31;10508374;28;20048;-64
2022/06/11 01:56:20;;;;;;;6.05;3.17;;;;;;;13.52;62.23;100506.72;10506950;28;20078;-65
2022/06/11 02:01:44;;;;;;;8.73;3.05;;;;;;;13.60;61.89;100511.50;10509356;28;20050;-64
2022/06/11 02:07:15;;;;;;;8.48;3.20;;;;;;;13.74;61.78;100511.47;10514835;28;20076;-64
2022/06/11 02:12:25;;;;;;;7.97;3.25;;;;;;;13.57;61.71;100504.66;10495826;28;20080;-64
2022/06/11 02:17:32;;;;;;;7.07;3.17;;;;;;;13.59;61.35;100504.56;10514734;28;20089;-63
2022/06/11 02:22:50;;;;;;;10.15;3.65;;;;;;;13.67;61.79;100500.53;10514518;28;20050;-64
2022/06/11 02:27:56;;;;;;;6.00;3.10;;;;;;;13.78;61.10;100500.66;10515362;28;20048;-64
2022/06/11 02:32:59;;;;;;;8.43;3.45;;;;;;;13.77;61.03;100500.78;10513818;28;20557;-64
2022/06/11 02:38:04;;;;;;;8.95;3.50;;;;;;;13.80;61.03;100507.63;10507679;28;20043;-64
2022/06/11 02:43:05;;;;;;;8.35;3.22;;;;;;;13.77;61.00;100509.50;10514463;28;20135;-64
2022/06/11 02:48:08;;;;;;;7.45;3.65;;;;;;;13.72;60.81;100515.97;10523058;28;20048;-64
2022/06/11 02:53:10;;;;;;;6.70;3.35;;;;;;;13.65;60.79;100512.06;10522530;28;20439;-63
2022/06/11 02:58:14;;;;;;;6.90;2.88;;;;;;;13.61;60.70;100518.47;10522278;28;20056;-64
2022/06/11 03:03:16;;;;;;;5.88;2.95;;;;;;;13.48;61.07;100517.53;10518877;28;20389;-64
2022/06/11 03:08:18;;;;;;;7.78;3.25;;;;;;;13.36;61.21;100527.00;10515807;28;20048;-64
2022/06/11 03:13:21;;;;;;;10.07;3.40;;;;;;;12.93;61.91;100560.25;10512098;28;20823;-64
2022/06/11 03:18:23;;;;;;;8.65;3.30;;;;;;;12.85;62.10;100543.25;10515459;28;20312;-64
2022/06/11 03:23:26;;;;;;;7.00;3.08;;;;;;;12.86;62.05;100535.28;10514363;28;20071;-64
2022/06/11 03:28:29;;;;;;;5.00;2.63;;;;;;;12.91;62.24;100533.25;10514268;28;20048;-64
2022/06/11 03:33:31;;;;;;;8.98;3.10;;;;;;;13.01;61.75;100540.56;10513346;28;20442;-65
2022/06/11 03:38:33;;;;;;;5.00;2.63;;;;;;;12.90;61.69;100541.22;10514671;28;20052;-64
2022/06/11 03:43:35;;;;;;;5.82;3.05;;;;;;;13.05;61.80;100537.66;10513337;28;20163;-65
2022/06/11 03:48:38;;;;;;;8.70;4.07;;;;;;;12.77;62.45;100543.72;10513369;28;20524;-64
2022/06/11 03:53:42;;;;;;;5.75;3.47;;;;;;;12.92;62.33;100545.41;10510098;28;20098;-63
2022/06/11 03:58:46;;;;;;;8.85;3.42;;;;;;;12.82;62.56;100546.91;10513159;28;20178;-64
2022/06/11 04:04:03;;;;;;;6.70;3.47;;;;;;;13.03;62.13;100547.41;10513169;28;20432;-64
2022/06/11 04:09:10;;;;;;;7.80;3.40;;;;;;;13.17;61.67;100559.72;10513419;28;20098;-65
2022/06/11 04:14:11;;;;;;;6.63;3.05;;;;;;;15.29;57.73;100542.28;10509449;28;20047;-65
2022/06/11 04:19:19;;;;;;;12.35;3.40;;;;;;;18.12;50.99;100530.34;10511571;28;20048;-64
2022/06/11 04:24:22;;;;;;;4.68;2.00;;;;;;;19.86;46.95;100528.69;10512527;28;20131;-63
2022/06/11 04:29:28;;;;;;;7.85;2.05;;;;;;;21.40;43.67;100530.28;10510346;28;20127;-64
2022/06/11 04:34:30;;;;;;;7.25;2.08;;;;;;;22.88;40.68;100526.22;10512094;28;20075;-65
2022/06/11 04:39:33;;;;;;;5.55;1.80;;;;;;;24.18;38.77;100527.53;10511473;28;20785;-64
2022/06/11 04:44:34;;;;;;;8.48;2.10;;;;;;;23.29;39.47;100520.13;10512290;28;20055;-64
2022/06/11 04:49:37;;;;;;;4.03;1.77;;;;;;;21.07;42.99;100532.47;10511136;28;20178;-64
2022/06/11 04:54:39;;;;;;;6.95;2.13;;;;;;;18.98;47.04;100541.66;10511440;28;20559;-63
2022/06/11 04:59:41;;;;;;;5.30;2.00;;;;;;;17.89;49.42;100549.91;10510648;28;20113;-63
2022/06/11 05:04:43;;;;;;;4.32;2.03;;;;;;;16.98;51.16;100553.56;10511214;28;20054;-64
2022/06/11 05:09:45;;;;;;;4.05;2.05;;;;;;;16.50;52.64;100559.91;10510198;28;20063;-65
2022/06/11 05:14:47;;;;;;;5.43;2.00;;;;;;;16.33;53.97;100558.47;10510438;28;20517;-64
2022/06/11 05:19:49;;;;;;;6.72;2.30;;;;;;;16.22;54.49;100553.16;10510284;28;20040;-64
2022/06/11 05:24:50;;;;;;;6.65;2.40;;;;;;;15.92;55.00;100563.28;10509803;28;20136;-65
2022/06/11 05:30:09;;;;;;;5.95;2.60;;;;;;;15.59;56.60;100560.41;10510065;28;20141;-62
2022/06/11 05:35:22;;;;;;;5.70;2.60;;;;;;;15.49;56.90;100569.91;10508766;28;20204;-65
2022/06/11 05:40:28;;;;;;;4.97;2.50;;;;;;;15.43;57.44;100571.16;10509601;28;20058;-64
2022/06/11 05:45:40;;;;;;;9.00;2.65;;;;;;;15.48;57.98;100576.09;10506769;28;20052;-65
2022/06/11 05:50:48;;;;;;;5.15;2.50;;;;;;;15.60;58.08;100576.13;10509166;28;20055;-64
2022/06/11 05:55:51;;;;;;;5.43;2.38;;;;;;;15.85;57.26;100573.44;10508183;28;20555;-63
2022/06/11 06:00:54;;;;;;;6.95;2.58;;;;;;;15.95;57.59;100573.63;10509765;28;20543;-64
2022/06/11 06:05:57;;;;;;;4.85;2.40;;;;;;;16.03;57.21;100576.56;10505628;28;20674;-64
2022/06/11 06:10:59;;;;;;;6.97;2.55;;;;;;;16.13;57.46;100575.78;10508848;28;20147;-64
2022/06/11 06:16:01;;;;;;;7.25;2.60;;;;;;;16.04;57.74;100571.16;10507980;28;20059;-65
2022/06/11 06:21:04;;;;;;;5.43;2.65;;;;;;;16.13;57.85;100572.28;10507825;28;20044;-65
2022/06/11 06:26:05;;;;;;;5.03;2.38;;;;;;;16.55;57.36;100573.63;10507879;28;20134;-64
2022/06/11 06:31:09;;;;;;;7.93;3.17;;;;;;;16.67;56.75;100578.00;10508306;28;20150;-64
2022/06/11 06:36:12;;;;;;;4.88;2.80;;;;;;;17.02;56.44;100578.81;10504176;28;20141;-63
2022/06/11 06:41:14;;;;;;;8.25;2.70;;;;;;;17.55;55.18;100588.75;10507484;28;20056;-64
2022/06/11 06:46:17;;;;;;;8.73;2.88;;;;;;;18.30;53.61;100581.00;10506868;28;20134;-64
2022/06/11 06:51:19;;;;;;;5.22;2.50;;;;;;;18.97;51.97;100589.50;10506615;28;20454;-64
2022/06/11 06:56:25;;;;;;;6.28;2.53;;;;;;;18.75;52.45;100592.28;10505658;28;20151;-63
2022/06/11 07:01:28;;;;;;;8.27;2.40;;;;;;;19.06;51.56;100592.25;10507596;28;20080;-64
2022/06/11 07:06:32;;;;;;;8.18;2.40;;;;;;;19.14;51.04;100588.94;10504069;28;20075;-64
2022/06/11 07:11:34;;;;;;;9.95;2.88;;;;;;;19.36;51.01;100581.69;10506992;28;20142;-63
2022/06/11 07:16:44;;;;;;;7.65;2.78;;;;;;;19.25;51.10;100571.16;10505850;28;20573;-64
2022/06/11 07:21:49;;;;;;;11.18;2.88;;;;;;;18.99;51.46;100580.44;10505936;28;20338;-63
2022/06/11 07:26:54;;;;;;;6.97;2.60;;;;;;;19.21;51.45;100575.06;10506826;28;20050;-64
2022/06/11 07:32:01;;;;;;;7.32;2.80;;;;;;;19.49;51.53;100581.47;10508381;28;20186;-63
2022/06/11 07:37:04;;;;;;;10.07;2.90;;;;;;;19.59;51.29;100578.84;10512179;28;20194;-64
2022/06/11 07:42:07;;;;;;;9.32;3.00;;;;;;;20.18;50.07;100572.63;10513920;28;20408;-63
2022/06/11 07:47:08;;;;;;;4.95;2.35;;;;;;;20.58;49.38;100569.88;10513230;28;20060;-64
2022/06/11 07:52:10;;;;;;;6.45;2.50;;;;;;;20.26;49.33;100575.44;10512507;28;20131;-63
2022/06/11 07:57:12;;;;;;;7.00;2.50;;;;;;;19.95;50.52;100576.50;10512217;28;20496;-66
2022/06/11 08:02:13;;;;;;;8.65;2.30;;;;;;;19.72;51.52;100577.66;10512862;28;20623;-67
2022/06/11 08:07:15;;;;;;;8.60;2.42;;;;;;;19.55;51.45;100575.63;10514046;28;20139;-67
2022/06/11 08:12:17;;;;;;;9.95;2.65;;;;;;;19.69;51.51;100575.25;10509174;28;20044;-67
2022/06/11 08:17:18;;;;;;;8.38;2.40;;;;;;;19.57;51.45;100570.19;10512374;28;20178;-67
2022/06/11 08:22:23;;;;;;;7.20;2.63;;;;;;;19.38;52.22;100571.78;10510181;28;20087;-67
2022/06/11 08:27:25;;;;;;;9.32;2.70;;;;;;;19.67;51.79;100576.34;10512406;28;20210;-67
2022/06/11 08:32:27;;;;;;;4.82;2.20;;;;;;;20.22;50.51;100567.88;10503732;28;20294;-67
2022/06/11 08:37:28;;;;;;;7.60;2.20;;;;;;;20.88;49.28;100580.41;10499516;28;20052;-67
2022/06/11 08:42:40;;;;;;;5.28;2.33;;;;;;;21.46;47.76;100567.81;10495086;28;20163;-67
2022/06/11 08:47:49;;;;;;;8.27;2.20;;;;;;;22.10;46.78;100567.81;10494885;28;20060;-67
2022/06/11 08:52:51;;;;;;;9.67;2.30;;;;;;;22.58;46.39;100560.28;10486080;28;20048;-67
2022/06/11 08:58:25;;;;;;;7.93;2.50;;;;;;;22.34;46.11;100562.72;10481742;28;20415;-67
2022/06/11 09:03:44;;;;;;;7.47;2.20;;;;;;;22.98;46.02;100553.66;10491595;28;20054;-67
2022/06/11 09:09:10;;;;;;;15.60;2.90;;;;;;;24.06;43.66;100547.50;10493820;28;20149;-66
2022/06/11 09:14:15;;;;;;;8.95;2.33;;;;;;;24.39;42.34;100536.94;10497544;28;20154;-67
2022/06/11 09:19:54;;;;;;;9.88;2.10;;;;;;;24.95;41.47;100534.28;10504716;28;20055;-67
2022/06/11 09:25:04;;;;;;;7.50;2.63;;;;;;;26.35;39.45;100522.66;10506742;28;20124;-67
2022/06/11 09:30:24;;;;;;;4.40;1.83;;;;;;;26.58;37.42;100520.84;10505036;28;20131;-66
2022/06/11 09:35:35;;;;;;;9.23;2.08;;;;;;;27.04;36.92;100522.44;10505450;28;20148;-67
2022/06/11 09:40:44;;;;;;;5.75;1.80;;;;;;;26.71;35.71;100518.38;10500991;28;20422;-67
2022/06/11 09:46:07;;;;;;;6.10;1.80;;;;;;;26.89;36.94;100521.59;10496203;28;20409;-66
2022/06/11 09:51:34;;;;;;;4.43;1.67;;;;;;;27.94;34.51;100518.53;10506498;28;20043;-66
2022/06/11 09:57:03;;;;;;;5.82;1.55;;;;;;;27.84;32.63;100514.47;10504676;28;20467;-67
2022/06/11 10:07:34;;;;;;;3.47;1.58;;;;;;;27.62;32.62;100510.06;10500727;28;20484;-67
2022/06/11 10:12:46;;;;;;;6.57;1.50;;;;;;;27.58;32.96;100514.13;10506319;28;20040;-69
2022/06/11 10:18:25;;;;;;;4.80;1.67;;;;;;;27.72;33.01;100510.59;10498478;28;20139;-69
2022/06/11 10:23:57;;;;;;;4.55;1.55;;;;;;;28.79;30.93;100511.31;10501583;28;20132;-69
2022/06/11 10:29:24;;;;;;;5.22;1.77;;;;;;;29.27;30.13;100493.47;10483498;28;20055;-69
2022/06/11 10:34:28;;;;;;;3.60;1.40;;;;;;;28.72;31.95;100494.31;10503956;28;20127;-69
2022/06/11 10:39:34;;;;;;;5.78;1.52;;;;;;;28.20;31.16;100500.00;10501504;28;20048;-69
2022/06/11 10:44:42;;;;;;;3.90;1.42;;;;;;;27.85;33.11;100489.28;10498242;28;20056;-69
2022/06/11 10:49:54;;;;;;;4.80;1.70;;;;;;;27.61;33.14;100481.50;10502086;28;20048;-69
2022/06/11 10:54:56;;;;;;;5.95;1.55;;;;;;;27.24;33.83;100482.50;10504177;28;20143;-69
2022/06/11 11:00:23;;;;;;;4.38;1.90;;;;;;;27.27;33.58;100479.41;10506227;28;20575;-69
2022/06/11 11:05:25;;;;;;;4.80;1.77;;;;;;;27.38;33.25;100473.59;10509392;28;20051;-68
2022/06/11 11:10:36;;;;;;;4.75;1.73;;;;;;;27.59;32.64;100473.63;10509580;28;20503;-69
2022/06/11 11:15:40;;;;;;;7.65;1.58;;;;;;;27.74;32.12;100466.41;10504513;28;20044;-69
2022/06/11 11:20:44;;;;;;;5.32;1.50;;;;;;;27.80;32.62;100460.28;10506710;28;20048;-69
2022/06/11 11:26:00;;;;;;;5.13;1.50;;;;;;;28.07;31.50;100456.00;10506920;28;20056;-70
2022/06/11 11:31:18;;;;;;;6.80;1.55;;;;;;;28.05;31.04;100456.22;10510305;28;20085;-68
2022/06/11 11:36:22;;;;;;;4.68;1.30;;;;;;;28.15;31.68;100454.03;10508602;28;20398;-69
2022/06/11 11:41:31;;;;;;;4.05;1.30;;;;;;;28.22;30.65;100441.47;10509083;28;20130;-69
2022/06/11 11:46:35;;;;;;;7.20;1.70;;;;;;;28.23;31.65;100439.63;10509145;28;20412;-68
2022/06/11 11:51:40;;;;;;;4.22;1.40;;;;;;;28.61;31.44;100440.16;10500420;28;20078;-69
2022/06/11 11:56:48;;;;;;;4.32;1.50;;;;;;;28.75;30.52;100439.22;10503164;28;20054;-69
2022/06/11 12:01:54;;;;;;;6.00;1.60;;;;;;;28.46;31.55;100434.84;10512755;28;20131;-69
2022/06/11 12:06:58;;;;;;;4.93;1.60;;;;;;;28.53;31.52;100433.06;10509949;28;20123;-69
2022/06/11 12:12:09;;;;;;;4.30;1.52;;;;;;;28.63;29.73;100433.56;10510246;28;20059;-69
2022/06/11 12:17:22;;;;;;;4.35;1.40;;;;;;;28.88;29.53;100418.66;10510272;28;20139;-69
2022/06/11 12:22:41;;;;;;;4.88;1.50;;;;;;;28.74;30.02;100414.19;10510612;28;20610;-69
2022/06/11 12:27:48;;;;;;;5.38;1.50;;;;;;;28.46;31.02;100413.31;10510671;28;20055;-68
2022/06/11 12:32:50;;;;;;;4.63;1.67;;;;;;;28.53;30.30;100402.63;10491348;28;20289;-69
2022/06/11 12:38:02;;;;;;;4.25;1.40;;;;;;;28.74;30.15;100397.19;10510510;28;20484;-69
2022/06/11 12:43:19;;;;;;;4.80;1.55;;;;;;;29.24;29.42;100387.94;10510642;28;20509;-69
2022/06/11 12:48:38;;;;;;;5.05;1.52;;;;;;;29.13;29.53;100385.81;10502341;28;20055;-69
2022/06/11 12:54:22;;;;;;;4.00;1.67;;;;;;;29.17;29.87;100385.22;10509565;28;20161;-69
2022/06/11 12:59:43;;;;;;;5.05;1.60;;;;;;;29.06;28.93;100386.63;10510186;28;20326;-69
2022/06/11 13:04:54;;;;;;;6.43;1.38;;;;;;;28.85;30.10;100388.56;10508641;28;20048;-69
2022/06/11 13:10:17;;;;;;;4.70;1.60;;;;;;;28.82;29.84;100387.09;10505654;28;20048;-67
2022/06/11 13:15:28;;;;;;;3.80;1.30;;;;;;;28.84;29.12;100393.16;10502346;28;20378;-69
2022/06/11 13:20:42;;;;;;;2.47;1.30;;;;;;;28.50;29.70;100382.34;10503389;28;20058;-69
2022/06/11 13:25:57;;;;;;;4.43;1.33;;;;;;;28.76;29.68;100382.50;10507846;28;20131;-69
2022/06/11 13:31:33;;;;;;;3.17;1.30;;;;;;;29.07;29.65;100369.41;10506536;28;20098;-67
2022/06/11 13:37:01;;;;;;;3.38;1.20;;;;;;;29.24;28.11;100366.38;10505387;28;20044;-68
2022/06/11 13:42:12;;;;;;;4.28;1.48;;;;;;;29.02;28.41;100366.50;10506557;28;20446;-69
2022/06/11 13:47:59;;;;;;;3.83;1.23;;;;;;;28.96;28.88;100358.41;10504253;28;20044;-67
2022/06/11 13:58:40;;;;;;;7.53;1.80;;;;;;;29.94;26.83;100347.94;10506152;28;20587;-67
2022/06/11 14:04:21;;;;;;;3.53;1.30;;;;;;;30.03;26.36;100346.69;10493442;28;20507;-69
2022/06/11 14:15:25;;;;;;;3.67;1.60;;;;;;;30.28;25.32;100331.53;10503427;28;20048;-69
2022/06/11 14:20:36;;;;;;;3.53;1.50;;;;;;;30.49;25.43;100333.19;10502468;28;20155;-68
2022/06/11 14:25:43;;;;;;;5.30;1.40;;;;;;;30.31;25.39;100328.44;10504254;28;20135;-68
2022/06/11 14:30:45;;;;;;;4.57;1.35;;;;;;;30.28;25.81;100331.53;10503761;28;20130;-67
2022/06/11 14:35:49;;;;;;;2.60;1.25;;;;;;;30.24;25.33;100335.69;10500760;28;20051;-68
2022/06/11 14:41:14;;;;;;;3.53;1.58;;;;;;;30.03;25.66;100325.09;10501831;28;20566;-68
2022/06/11 14:46:38;;;;;;;2.90;1.40;;;;;;;30.03;25.77;100327.81;10503321;28;20046;-68
2022/06/11 14:52:03;;;;;;;3.85;1.40;;;;;;;30.21;24.39;100314.53;10494710;28;20052;-67
2022/06/11 14:57:10;;;;;;;4.40;1.38;;;;;;;29.84;26.24;100307.03;10504039;28;20055;-69
2022/06/11 15:02:40;;;;;;;3.88;1.25;;;;;;;29.41;26.48;100311.13;10501628;28;20056;-68
2022/06/11 15:07:49;;;;;;;4.72;1.45;;;;;;;29.34;26.66;100316.47;10501916;28;20105;-68
2022/06/11 15:13:21;;;;;;;4.25;1.27;;;;;;;29.25;26.35;100309.63;10501875;28;20287;-69
2022/06/11 15:18:40;;;;;;;3.58;1.30;;;;;;;29.24;26.47;100312.50;10503104;28;20530;-68
2022/06/11 15:23:47;;;;;;;3.35;1.50;;;;;;;29.57;26.65;100300.81;10504564;28;20158;-68
2022/06/11 15:29:11;;;;;;;4.40;1.20;;;;;;;29.73;26.98;100304.94;10498067;28;20154;-68
2022/06/11 15:34:22;;;;;;;3.00;1.30;;;;;;;29.69;26.53;100306.41;10497722;28;20261;-69
2022/06/11 15:39:24;;;;;;;3.72;1.60;;;;;;;29.49;26.32;100302.84;10484637;28;20085;-69
2022/06/11 15:44:31;;;;;;;4.65;1.40;;;;;;;29.47;25.94;100296.84;10485422;28;20041;-69
2022/06/11 15:49:39;;;;;;;3.47;1.30;;;;;;;29.53;26.73;100296.84;10482383;28;20058;-69
2022/06/11 16:00:08;;;;;;;6.97;1.80;;;;;;;29.53;26.59;100287.94;10489300;28;20143;-69
2022/06/11 16:05:19;;;;;;;3.67;1.40;;;;;;;29.06;26.38;100284.28;10481906;28;21567;-69
2022/06/11 16:10:25;;;;;;;5.25;1.45;;;;;;;29.19;26.26;100285.34;10492081;28;20044;-69
2022/06/11 16:15:34;;;;;;;3.30;1.25;;;;;;;28.64;27.93;100286.34;10490966;28;20063;-69
2022/06/11 16:20:36;;;;;;;5.95;1.40;;;;;;;28.42;28.50;100280.22;10496854;28;20056;-68
2022/06/11 16:25:42;;;;;;;4.93;1.50;;;;;;;28.58;27.54;100269.16;10489845;28;20825;-69
2022/06/11 16:30:45;;;;;;;3.25;1.50;;;;;;;28.70;28.47;100269.41;10495359;28;20126;-68
2022/06/11 16:35:50;;;;;;;2.75;1.45;;;;;;;28.53;28.73;100281.53;10496687;28;20056;-67
2022/06/11 16:40:59;;;;;;;4.30;1.40;;;;;;;28.43;28.68;100278.38;10491312;28;20193;-67
2022/06/11 16:46:04;;;;;;;3.33;1.30;;;;;;;27.90;29.45;100277.16;10496382;28;20054;-68
2022/06/11 16:56:42;;;;;;;5.65;1.83;;;;;;;27.86;29.95;100281.25;10491682;28;20061;-69
2022/06/11 17:03:05;;;;;;;4.68;1.52;;;;;;;27.92;29.57;100286.69;10493523;28;20046;-69
2022/06/11 17:12:49;;;;;;;3.13;1.30;;;;;;;28.26;29.63;100288.56;10491037;28;20492;-69
2022/06/11 17:17:54;;;;;;;3.33;1.30;;;;;;;28.38;29.01;100275.44;10488798;28;20117;-69
2022/06/11 17:22:57;;;;;;;7.60;3.10;;;;;;;28.40;29.66;100284.97;10482948;28;20036;-69
2022/06/11 17:27:58;;;;;;;7.57;3.67;;;;;;;28.42;29.58;100274.84;10493501;28;20219;-69
2022/06/11 17:33:00;;;;;;;5.72;3.20;;;;;;;28.54;29.61;100275.97;10499121;28;20119;-69
2022/06/11 17:38:02;;;;;;;4.38;1.77;;;;;;;28.38;29.48;100275.44;10500672;28;20048;-69
2022/06/11 17:43:04;;;;;;;5.70;1.88;;;;;;;28.22;29.69;100276.53;10505917;28;20516;-69
2022/06/11 17:48:10;;;;;;;4.13;1.50;;;;;;;27.96;30.60;100281.75;10507075;28;20377;-68
2022/06/11 17:53:17;;;;;;;6.78;1.70;;;;;;;27.94;30.43;100286.47;10505538;28;20040;-68
2022/06/11 17:58:18;;;;;;;5.22;1.48;;;;;;;27.94;31.01;100278.41;10503270;28;20575;-68
2022/06/11 18:03:22;;;;;;;3.88;1.40;;;;;;;27.88;30.82;100280.03;10501364;28;20131;-69
2022/06/11 18:08:24;;;;;;;4.38;1.60;;;;;;;27.67;32.19;100284.59;10472964;28;20052;-69
2022/06/11 18:13:26;;;;;;;3.85;1.45;;;;;;;27.39;32.21;100287.19;10489734;28;20135;-69
2022/06/11 18:18:35;;;;;;;5.43;1.70;;;;;;;27.26;32.37;100285.19;10490850;28;20052;-69
2022/06/11 18:28:56;;;;;;;3.78;1.50;;;;;;;26.92;33.62;100293.03;10485908;28;20040;-69
2022/06/11 18:33:58;;;;;;;7.85;1.90;;;;;;;26.71;34.50;100290.28;10482368;28;20139;-69
2022/06/11 18:39:00;;;;;;;6.38;1.70;;;;;;;26.44;34.88;100286.41;10493736;28;20465;-69
2022/06/11 18:44:03;;;;;;;5.72;1.60;;;;;;;26.12;35.97;100299.31;10494569;28;20710;-68
2022/06/11 18:49:05;;;;;;;5.47;1.67;;;;;;;25.86;37.49;100300.53;10490929;28;20048;-69
2022/06/11 18:54:06;;;;;;;6.05;2.22;;;;;;;25.48;38.15;100317.59;10492575;28;20040;-69
2022/06/11 18:59:08;;;;;;;4.20;1.60;;;;;;;25.25;38.68;100315.84;10491540;28;20062;-69
2022/06/11 19:04:10;;;;;;;5.07;1.70;;;;;;;24.91;39.30;100318.88;10489443;28;20052;-68
2022/06/11 19:09:12;;;;;;;4.97;1.73;;;;;;;24.67;40.29;100327.81;10487281;28;20044;-67
2022/06/11 19:14:14;;;;;;;3.42;1.50;;;;;;;24.43;41.01;100329.72;10496844;28;20063;-68
2022/06/11 19:19:16;;;;;;;5.40;2.15;;;;;;;24.06;42.24;100325.72;10503376;28;20052;-69
2022/06/11 19:24:20;;;;;;;6.68;3.35;;;;;;;23.90;43.17;100324.91;10506185;28;20058;-69
2022/06/11 19:29:22;;;;;;;5.60;2.30;;;;;;;23.64;43.63;100338.41;10513670;28;20135;-69
2022/06/11 19:34:24;;;;;;;6.90;2.40;;;;;;;23.35;44.65;100344.16;10509007;28;20283;-68
2022/06/11 19:39:32;;;;;;;5.20;1.92;;;;;;;23.11;45.49;100338.78;10505282;28;20048;-67
2022/06/11 19:44:34;;;;;;;3.97;1.70;;;;;;;22.82;46.13;100345.50;10515999;28;20109;-67
2022/06/11 19:49:36;;;;;;;5.75;2.10;;;;;;;22.59;46.55;100343.38;10512569;28;20817;-67
2022/06/11 19:54:39;;;;;;;4.55;2.00;;;;;;;22.43;47.33;100361.91;10505645;28;20048;-63
2022/06/11 19:59:41;;;;;;;5.93;1.90;;;;;;;22.16;47.80;100362.06;10513042;28;20131;-63
2022/06/11 20:04:42;;;;;;;6.03;2.00;;;;;;;22.00;48.20;100377.03;10513939;28;20414;-63
2022/06/11 20:09:44;;;;;;;4.93;2.10;;;;;;;21.83;48.87;100378.72;10514653;28;20050;-62
2022/06/11 20:14:46;;;;;;;5.35;2.08;;;;;;;21.57;49.11;100378.66;10511137;28;20113;-62
2022/06/11 20:19:47;;;;;;;8.43;2.10;;;;;;;21.63;49.04;100383.38;10513395;28;20160;-62
2022/06/11 20:24:49;;;;;;;4.03;1.90;;;;;;;21.57;49.47;100394.63;10509323;28;20048;-63
2022/06/11 20:29:51;;;;;;;4.78;1.92;;;;;;;21.43;49.69;100389.81;10509660;28;20223;-62
2022/06/11 20:34:55;;;;;;;4.10;2.00;;;;;;;21.32;49.75;100394.50;10512341;28;20051;-62
2022/06/11 20:39:56;;;;;;;4.85;2.10;;;;;;;21.20;50.03;100400.97;10511333;28;20136;-62
2022/06/11 20:44:58;;;;;;;4.10;2.13;;;;;;;21.13;50.43;100402.56;10510754;28;21104;-62
2022/06/11 20:50:00;;;;;;;4.68;2.15;;;;;;;21.01;50.88;100402.75;10511149;28;20796;-62
2022/06/11 20:55:02;;;;;;;4.15;2.28;;;;;;;20.92;50.69;100408.94;10509591;28;20139;-62
2022/06/11 21:00:09;;;;;;;4.63;2.15;;;;;;;20.88;51.01;100404.91;10507969;28;20508;-62
2022/06/11 21:05:11;;;;;;;4.85;2.20;;;;;;;20.78;51.47;100416.56;10511427;28;20409;-62
2022/06/11 21:10:13;;;;;;;4.93;2.63;;;;;;;20.71;51.64;100420.75;10509303;28;20475;-62
2022/06/11 21:15:38;;;;;;;5.07;2.85;;;;;;;20.58;51.99;100415.75;10510278;28;20164;-62
2022/06/11 21:20:42;;;;;;;5.97;2.40;;;;;;;20.62;51.59;100421.63;10509115;28;20058;-61
2022/06/11 21:25:43;;;;;;;9.55;4.20;;;;;;;20.59;51.72;100416.59;10510020;28;20063;-62
2022/06/11 21:30:47;;;;;;;7.35;4.30;;;;;;;20.50;51.90;100412.94;10508530;28;20215;-61
2022/06/11 21:35:48;;;;;;;7.00;3.75;;;;;;;20.38;52.18;100415.94;10510315;28;20062;-62
2022/06/11 21:46:10;;;;;;;5.45;2.90;;;;;;;20.23;52.32;100420.84;10508833;28;20048;-62
2022/06/11 21:51:12;;;;;;;4.18;2.63;;;;;;;20.17;52.55;100427.53;10509481;28;20052;-61
2022/06/11 21:56:14;;;;;;;5.28;2.60;;;;;;;20.05;53.12;100426.00;10508594;28;20480;-62
2022/06/11 22:01:27;;;;;;;7.70;3.20;;;;;;;19.94;53.13;100442.06;10508567;28;20056;-62
2022/06/11 22:06:29;;;;;;;7.07;4.00;;;;;;;19.89;53.24;100432.84;10508501;28;20054;-62
2022/06/11 22:11:33;;;;;;;7.20;3.30;;;;;;;19.79;53.38;100437.25;10508775;28;20126;-62
2022/06/11 22:16:35;;;;;;;5.57;3.13;;;;;;;19.70;53.75;100435.44;10507200;28;20040;-62
2022/06/11 22:21:43;;;;;;;5.03;2.95;;;;;;;19.64;53.77;100442.16;10508935;28;20407;-61
2022/06/11 22:26:45;;;;;;;5.22;2.83;;;;;;;19.62;53.96;100441.44;10507282;28;20388;-61
2022/06/11 22:31:47;;;;;;;8.07;3.00;;;;;;;19.56;54.22;100444.66;10507911;28;20452;-61
2022/06/11 22:36:50;;;;;;;4.85;2.58;;;;;;;19.39;54.59;100450.59;10506992;28;20194;-62
2022/06/11 22:41:52;;;;;;;7.43;2.80;;;;;;;19.34;54.72;100451.00;10507305;28;20158;-62
2022/06/11 22:46:54;;;;;;;7.03;2.90;;;;;;;19.33;54.67;100457.28;10507024;28;20079;-62
2022/06/11 22:51:56;;;;;;;5.05;2.63;;;;;;;19.27;54.52;100456.97;10507585;28;20261;-62
2022/06/11 22:56:58;;;;;;;7.00;3.08;;;;;;;19.18;54.89;100457.78;10507346;28;20049;-62
2022/06/11 23:01:59;;;;;;;5.47;3.10;;;;;;;19.06;55.23;100466.78;10511012;28;20058;-62
2022/06/11 23:07:01;;;;;;;6.32;3.10;;;;;;;18.99;55.31;100462.97;10515339;28;20059;-61
2022/06/11 23:12:03;;;;;;;5.40;2.92;;;;;;;18.90;55.54;100469.06;10513834;28;20135;-62
2022/06/11 23:17:05;;;;;;;4.32;2.58;;;;;;;18.76;56.00;100462.28;10514669;28;20130;-62
2022/06/11 23:22:07;;;;;;;5.07;3.03;;;;;;;18.60;56.63;100468.06;10515771;28;20347;-61
2022/06/11 23:27:09;;;;;;;6.78;2.80;;;;;;;18.50;56.99;100474.25;10512728;28;20059;-62
2022/06/11 23:32:11;;;;;;;6.93;3.10;;;;;;;18.38;56.78;100475.28;10514696;28;20203;-62
2022/06/11 23:37:15;;;;;;;6.07;3.00;;;;;;;18.29;57.30;100471.59;10514337;28;20125;-61
2022/06/11 23:42:17;;;;;;;5.35;2.80;;;;;;;18.22;57.38;100480.19;10514768;28;20070;-62
2022/06/11 23:47:19;;;;;;;7.85;3.72;;;;;;;18.05;57.72;100480.69;10513580;28;20056;-61
2022/06/11 23:52:20;;;;;;;7.57;3.50;;;;;;;17.99;57.72;100473.25;10514351;28;20484;-61
2022/06/11 23:57:22;;;;;;;5.70;2.90;;;;;;;17.94;58.03;100475.41;10512931;28;20182;-62
